Time;durP1;ratioP1;P1;durP2;ratioP2;P2;SDS_P1;SDS_P2;PMS_P1;PMS_P2;Temp;Humidity;BMP_temperature;BMP_pressure;BME280_temperature;BME280_humidity;BME280_pressure;Samples;Min_cycle;Max_cycle;Signal;HPM_P1;HPM_P2
2021/11/01 00:00:13;;;;;;;3.40;1.00;;;;;;;;;;5049665;28;20227;-80
2021/11/01 00:02:40;;;;;;;6.15;1.60;;;;;;;;;;5050105;28;20231;-80
2021/11/01 00:05:08;;;;;;;4.88;1.40;;;;;;;;;;5054014;28;20382;-81
2021/11/01 00:07:36;;;;;;;2.85;1.48;;;;;;;;;;5049657;28;20194;-81
2021/11/01 00:10:04;;;;;;;2.50;1.58;;;;;;;;;;5048151;28;20200;-79
2021/11/01 00:12:32;;;;;;;5.60;1.85;;;;;;;;;;5038210;28;20201;-80
2021/11/01 00:15:01;;;;;;;4.38;1.55;;;;;;;;;;5048056;28;20199;-81
2021/11/01 00:17:28;;;;;;;4.63;1.80;;;;;;;;;;5049070;28;20216;-80
2021/11/01 00:19:56;;;;;;;3.65;1.98;;;;;;;;;;5058949;28;20203;-81
2021/11/01 00:22:23;;;;;;;6.43;1.75;;;;;;;;;;5050840;28;20218;-81
2021/11/01 00:24:51;;;;;;;3.35;1.52;;;;;;;;;;5047764;28;20207;-81
2021/11/01 00:27:18;;;;;;;3.17;1.30;;;;;;;;;;5047947;28;20671;-81
2021/11/01 00:29:45;;;;;;;3.60;1.33;;;;;;;;;;5049198;28;20699;-80
2021/11/01 00:32:15;;;;;;;4.15;1.50;;;;;;;;;;5047349;28;20207;-80
2021/11/01 00:34:42;;;;;;;4.95;1.75;;;;;;;;;;5051450;28;20660;-80
2021/11/01 00:37:09;;;;;;;3.40;1.40;;;;;;;;;;5046908;28;20199;-80
2021/11/01 00:39:36;;;;;;;4.82;1.58;;;;;;;;;;5041337;28;20587;-80
2021/11/01 00:42:04;;;;;;;4.50;1.73;;;;;;;;;;5048210;28;20203;-82
2021/11/01 00:44:31;;;;;;;4.68;1.10;;;;;;;;;;5048702;28;20188;-80
2021/11/01 00:46:59;;;;;;;5.75;1.67;;;;;;;;;;5050230;28;20192;-80
2021/11/01 00:49:27;;;;;;;1.90;1.45;;;;;;;;;;5056586;28;20207;-80
2021/11/01 00:51:54;;;;;;;3.70;1.30;;;;;;;;;;5047333;28;20294;-80
2021/11/01 00:54:22;;;;;;;4.28;1.25;;;;;;;;;;5045455;28;20200;-80
2021/11/01 00:56:49;;;;;;;3.90;1.80;;;;;;;;;;5045355;28;20195;-80
2021/11/01 00:59:17;;;;;;;5.50;1.58;;;;;;;;;;5051507;28;20242;-80
2021/11/01 01:01:45;;;;;;;2.92;1.50;;;;;;;;;;5048960;28;20195;-80
2021/11/01 01:04:12;;;;;;;5.13;1.70;;;;;;;;;;5050215;28;20199;-81
2021/11/01 01:06:40;;;;;;;6.00;1.60;;;;;;;;;;5045732;28;20202;-81
2021/11/01 01:09:08;;;;;;;2.40;1.83;;;;;;;;;;5048351;28;20203;-80
2021/11/01 01:11:35;;;;;;;3.33;1.77;;;;;;;;;;5049866;28;20295;-81
2021/11/01 01:14:02;;;;;;;5.65;3.45;;;;;;;;;;5047585;28;20192;-80
2021/11/01 01:16:31;;;;;;;3.25;1.35;;;;;;;;;;5048596;28;20200;-81
2021/11/01 01:18:59;;;;;;;6.93;1.50;;;;;;;;;;5046358;28;20243;-81
2021/11/01 01:24:13;;;;;;;3.45;1.55;;;;;;;;;;5039582;28;20408;-82
2021/11/01 01:26:40;;;;;;;2.88;1.60;;;;;;;;;;5044818;28;20204;-82
2021/11/01 01:29:11;;;;;;;2.88;1.60;;;;;;;;;;5045201;28;20691;-82
2021/11/01 01:31:39;;;;;;;5.40;1.70;;;;;;;;;;5046493;28;20282;-82
2021/11/01 01:34:06;;;;;;;4.78;1.95;;;;;;;;;;5051904;28;20734;-82
2021/11/01 01:36:33;;;;;;;3.58;1.50;;;;;;;;;;5050578;28;20192;-82
2021/11/01 01:39:01;;;;;;;3.55;2.25;;;;;;;;;;5048851;28;20235;-80
2021/11/01 01:41:30;;;;;;;5.65;2.40;;;;;;;;;;5046645;28;20199;-82
2021/11/01 01:43:58;;;;;;;3.15;1.52;;;;;;;;;;5037991;28;20258;-81
2021/11/01 01:46:26;;;;;;;4.78;1.90;;;;;;;;;;5047698;28;20214;-80
2021/11/01 01:48:53;;;;;;;2.85;1.50;;;;;;;;;;5050063;28;20231;-80
2021/11/01 01:51:21;;;;;;;6.68;1.85;;;;;;;;;;5047842;28;20226;-81
2021/11/01 01:53:51;;;;;;;3.55;1.70;;;;;;;;;;5046967;28;20215;-80
2021/11/01 01:56:18;;;;;;;5.13;1.85;;;;;;;;;;5046575;28;20188;-80
2021/11/01 01:59:16;;;;;;;5.43;2.25;;;;;;;;;;5047614;28;20226;-80
2021/11/01 02:01:43;;;;;;;5.10;1.60;;;;;;;;;;5046960;28;20214;-80
2021/11/01 02:04:10;;;;;;;5.20;2.10;;;;;;;;;;5047697;28;20339;-80
2021/11/01 02:06:46;;;;;;;3.83;2.22;;;;;;;;;;5046280;28;20203;-81
2021/11/01 02:09:17;;;;;;;2.42;1.63;;;;;;;;;;5047198;28;20206;-80
2021/11/01 02:11:48;;;;;;;9.57;2.15;;;;;;;;;;5046882;28;20198;-80
2021/11/01 02:14:18;;;;;;;15.18;4.55;;;;;;;;;;5047654;28;20226;-81
2021/11/01 02:16:45;;;;;;;7.90;1.77;;;;;;;;;;5047596;28;20199;-80
2021/11/01 02:19:16;;;;;;;5.40;2.70;;;;;;;;;;5051277;28;20223;-80
2021/11/01 02:21:48;;;;;;;2.53;1.75;;;;;;;;;;5041409;28;20199;-80
2021/11/01 02:24:19;;;;;;;4.90;1.67;;;;;;;;;;5046282;28;20199;-80
2021/11/01 02:26:48;;;;;;;1.85;1.60;;;;;;;;;;5048521;28;20204;-80
2021/11/01 02:29:17;;;;;;;5.07;1.70;;;;;;;;;;5048323;28;22035;-82
2021/11/01 02:31:44;;;;;;;3.17;1.80;;;;;;;;;;5046819;28;20223;-82
2021/11/01 02:34:12;;;;;;;3.78;2.55;;;;;;;;;;5047638;28;20570;-82
2021/11/01 02:36:39;;;;;;;3.08;1.30;;;;;;;;;;5046627;28;20203;-82
2021/11/01 02:39:06;;;;;;;13.93;2.53;;;;;;;;;;5051603;28;20210;-81
2021/11/01 02:41:34;;;;;;;7.50;1.70;;;;;;;;;;5052233;28;20203;-81
2021/11/01 02:44:03;;;;;;;4.40;1.90;;;;;;;;;;5049885;28;20667;-81
2021/11/01 02:46:30;;;;;;;2.67;1.40;;;;;;;;;;5050383;28;20210;-81
2021/11/01 02:48:57;;;;;;;4.28;2.03;;;;;;;;;;5050357;28;20679;-80
2021/11/01 02:51:25;;;;;;;2.63;1.40;;;;;;;;;;5050851;28;20207;-82
2021/11/01 02:53:52;;;;;;;4.55;1.67;;;;;;;;;;5049490;28;20207;-81
2021/11/01 02:56:20;;;;;;;2.90;1.42;;;;;;;;;;5040825;28;20207;-81
2021/11/01 02:58:47;;;;;;;4.70;1.90;;;;;;;;;;5048174;28;20585;-82
2021/11/01 03:01:17;;;;;;;7.50;2.00;;;;;;;;;;5047951;28;20222;-81
2021/11/01 03:03:44;;;;;;;7.63;2.00;;;;;;;;;;5051695;28;20200;-81
2021/11/01 03:06:12;;;;;;;3.67;1.40;;;;;;;;;;5050870;28;20571;-80
2021/11/01 03:08:39;;;;;;;2.80;1.40;;;;;;;;;;5048952;28;20195;-80
2021/11/01 03:11:07;;;;;;;6.07;1.50;;;;;;;;;;5050722;28;20200;-80
2021/11/01 03:13:35;;;;;;;3.33;1.58;;;;;;;;;;5051098;28;20644;-79
2021/11/01 03:16:04;;;;;;;2.75;1.63;;;;;;;;;;5046545;28;20229;-80
2021/11/01 03:18:38;;;;;;;4.28;1.75;;;;;;;;;;5051256;28;20220;-79
2021/11/01 03:21:08;;;;;;;5.53;1.30;;;;;;;;;;5044142;28;20286;-81
2021/11/01 03:23:35;;;;;;;3.85;1.38;;;;;;;;;;5048271;28;20196;-80
2021/11/01 03:26:04;;;;;;;5.55;1.40;;;;;;;;;;5051261;28;20552;-78
2021/11/01 03:28:32;;;;;;;2.80;1.55;;;;;;;;;;5065401;28;20259;-78
2021/11/01 03:30:59;;;;;;;2.95;1.35;;;;;;;;;;5057067;28;20200;-78
2021/11/01 03:33:29;;;;;;;5.30;1.77;;;;;;;;;;5054736;28;20211;-78
2021/11/01 03:35:58;;;;;;;2.85;1.45;;;;;;;;;;5048295;28;20241;-78
2021/11/01 03:38:25;;;;;;;4.72;1.60;;;;;;;;;;5050159;28;20234;-77
2021/11/01 03:40:53;;;;;;;2.90;1.20;;;;;;;;;;5051506;28;20207;-78
2021/11/01 03:43:27;;;;;;;3.50;1.60;;;;;;;;;;5049004;28;20191;-77
2021/11/01 03:45:56;;;;;;;4.47;1.80;;;;;;;;;;5047503;28;20961;-77
2021/11/01 03:48:23;;;;;;;2.30;1.20;;;;;;;;;;5051327;28;20214;-78
2021/11/01 03:50:58;;;;;;;3.65;1.35;;;;;;;;;;5049444;28;20290;-77
2021/11/01 03:53:27;;;;;;;4.63;1.52;;;;;;;;;;5049921;28;20225;-77
2021/11/01 03:55:54;;;;;;;7.70;1.38;;;;;;;;;;5050052;28;20211;-76
2021/11/01 03:58:21;;;;;;;6.88;1.30;;;;;;;;;;5048729;28;20216;-78
2021/11/01 04:00:48;;;;;;;4.60;1.40;;;;;;;;;;5050191;28;20215;-76
2021/11/01 04:03:16;;;;;;;2.28;1.35;;;;;;;;;;5051032;28;20206;-76
2021/11/01 04:05:43;;;;;;;4.22;1.50;;;;;;;;;;5039396;28;20212;-78
2021/11/01 04:08:10;;;;;;;3.15;1.30;;;;;;;;;;5040582;28;20199;-77
2021/11/01 04:10:39;;;;;;;3.08;1.30;;;;;;;;;;5048496;28;20599;-76
2021/11/01 04:13:06;;;;;;;4.20;1.80;;;;;;;;;;5042762;28;20583;-76
2021/11/01 04:15:37;;;;;;;2.13;1.23;;;;;;;;;;5044583;28;20565;-77
2021/11/01 04:18:05;;;;;;;5.68;1.30;;;;;;;;;;5040312;28;20668;-77
2021/11/01 04:20:49;;;;;;;2.75;1.10;;;;;;;;;;5055297;28;20210;-77
2021/11/01 04:23:16;;;;;;;2.70;1.30;;;;;;;;;;5040498;28;20206;-78
2021/11/01 04:25:45;;;;;;;4.80;1.35;;;;;;;;;;5041240;28;20203;-78
2021/11/01 04:28:13;;;;;;;1.90;1.10;;;;;;;;;;5042536;28;20326;-77
2021/11/01 04:30:41;;;;;;;3.20;1.10;;;;;;;;;;5046693;28;20219;-77
2021/11/01 04:33:11;;;;;;;4.05;1.38;;;;;;;;;;5048582;28;20246;-77
2021/11/01 04:35:39;;;;;;;3.53;1.25;;;;;;;;;;5044141;28;20287;-78
2021/11/01 04:38:12;;;;;;;3.10;1.42;;;;;;;;;;5051194;28;20218;-77
2021/11/01 04:40:52;;;;;;;4.00;1.15;;;;;;;;;;5049686;28;20699;-78
2021/11/01 04:43:53;;;;;;;3.10;1.45;;;;;;;;;;5048900;28;20286;-77
2021/11/01 04:54:34;;;;;;;2.92;1.20;;;;;;;;;;5049586;28;20560;-78
2021/11/01 04:57:02;;;;;;;2.28;1.10;;;;;;;;;;5049090;28;20621;-76
2021/11/01 04:59:31;;;;;;;3.20;1.50;;;;;;;;;;5049744;28;20699;-78
2021/11/01 05:01:58;;;;;;;2.80;1.20;;;;;;;;;;5052603;28;20718;-78
2021/11/01 05:04:27;;;;;;;3.05;1.20;;;;;;;;;;5053569;28;20211;-78
2021/11/01 05:06:59;;;;;;;3.83;1.70;;;;;;;;;;5046165;28;20257;-79
2021/11/01 05:09:28;;;;;;;3.88;1.80;;;;;;;;;;5051984;28;20233;-78
2021/11/01 05:12:01;;;;;;;3.53;1.30;;;;;;;;;;5052515;28;20664;-78
2021/11/01 05:14:35;;;;;;;2.92;1.33;;;;;;;;;;5053563;28;20599;-78
2021/11/01 05:17:23;;;;;;;2.88;1.17;;;;;;;;;;5052690;28;20199;-78
2021/11/01 05:19:53;;;;;;;2.03;1.15;;;;;;;;;;5054120;28;20219;-78
2021/11/01 05:22:27;;;;;;;3.30;1.33;;;;;;;;;;5056454;28;20204;-79
2021/11/01 05:24:58;;;;;;;6.50;1.48;;;;;;;;;;5059736;28;20218;-79
2021/11/01 05:27:41;;;;;;;3.25;1.30;;;;;;;;;;5057806;28;20223;-78
2021/11/01 05:30:14;;;;;;;2.45;0.90;;;;;;;;;;5060197;28;20219;-78
2021/11/01 05:32:44;;;;;;;1.35;0.98;;;;;;;;;;5050594;28;20195;-78
2021/11/01 05:35:11;;;;;;;4.13;1.35;;;;;;;;;;5055661;28;20291;-78
2021/11/01 05:37:38;;;;;;;3.17;1.20;;;;;;;;;;5047349;28;20199;-78
2021/11/01 05:40:06;;;;;;;2.25;1.23;;;;;;;;;;5050316;28;20219;-78
2021/11/01 05:42:33;;;;;;;2.72;1.40;;;;;;;;;;5044610;28;20204;-77
2021/11/01 05:45:00;;;;;;;4.97;1.20;;;;;;;;;;5040611;28;20199;-76
2021/11/01 05:47:28;;;;;;;2.40;1.23;;;;;;;;;;5048306;28;20298;-77
2021/11/01 05:49:56;;;;;;;2.47;1.65;;;;;;;;;;5051176;28;20206;-77
2021/11/01 05:52:27;;;;;;;2.03;1.20;;;;;;;;;;5049751;28;20222;-76
2021/11/01 05:54:57;;;;;;;2.55;1.30;;;;;;;;;;5047396;28;20226;-75
2021/11/01 05:57:33;;;;;;;1.75;1.10;;;;;;;;;;5047272;28;20239;-77
2021/11/01 06:00:09;;;;;;;3.40;1.13;;;;;;;;;;5048002;28;20222;-78
2021/11/01 06:02:46;;;;;;;1.30;0.90;;;;;;;;;;5050037;28;20199;-76
2021/11/01 06:05:19;;;;;;;4.40;1.30;;;;;;;;;;5046038;28;20590;-78
2021/11/01 06:07:55;;;;;;;3.53;1.27;;;;;;;;;;5048745;28;20233;-78
2021/11/01 06:10:39;;;;;;;3.80;1.73;;;;;;;;;;5047618;28;20196;-78
2021/11/01 06:15:50;;;;;;;5.35;1.40;;;;;;;;;;5046084;28;20190;-76
2021/11/01 06:18:19;;;;;;;2.35;1.33;;;;;;;;;;5051726;28;20662;-76
2021/11/01 06:20:46;;;;;;;2.60;1.10;;;;;;;;;;5045581;28;20219;-76
2021/11/01 06:23:13;;;;;;;4.28;1.67;;;;;;;;;;5047824;28;20203;-76
2021/11/01 06:25:41;;;;;;;2.20;1.13;;;;;;;;;;5046846;28;20203;-76
2021/11/01 06:28:12;;;;;;;2.78;1.10;;;;;;;;;;5045685;28;20192;-76
2021/11/01 06:30:42;;;;;;;4.30;1.10;;;;;;;;;;5046841;28;20202;-76
2021/11/01 06:33:25;;;;;;;2.58;1.20;;;;;;;;;;5049404;28;20250;-77
2021/11/01 06:52:44;;;;;;;3.30;1.20;;;;;;;;;;5048234;28;20384;-77
2021/11/01 06:58:10;;;;;;;1.80;1.00;;;;;;;;;;5041295;28;20314;-77
2021/11/01 07:14:38;;;;;;;1.88;1.00;;;;;;;;;;5048099;28;20202;-77
2021/11/01 07:17:08;;;;;;;2.35;1.15;;;;;;;;;;5054698;28;20188;-76
2021/11/01 07:19:51;;;;;;;3.30;1.83;;;;;;;;;;5046480;28;20251;-76
2021/11/01 07:38:05;;;;;;;5.60;2.08;;;;;;;;;;5057176;28;20226;-77
2021/11/01 08:20:57;;;;;;;1.77;1.00;;;;;;;;;;5053545;28;20625;-78
2021/11/01 08:29:25;;;;;;;1.08;0.80;;;;;;;;;;5033612;28;20699;-78
2021/11/01 08:37:49;;;;;;;3.17;0.98;;;;;;;;;;5045239;28;20265;-77
2021/11/01 08:43:26;;;;;;;1.90;0.90;;;;;;;;;;5046737;28;20207;-77
2021/11/01 08:46:08;;;;;;;2.28;1.38;;;;;;;;;;5053039;28;20226;-77
2021/11/01 08:48:47;;;;;;;2.40;1.45;;;;;;;;;;5047006;28;20203;-78
2021/11/01 09:02:38;;;;;;;4.32;1.75;;;;;;;;;;5049546;28;20224;-77
2021/11/01 09:19:37;;;;;;;1.75;1.00;;;;;;;;;;5023196;28;20256;-77
2021/11/01 09:22:31;;;;;;;4.80;1.17;;;;;;;;;;5045604;28;20727;-77
2021/11/01 09:25:09;;;;;;;2.97;1.15;;;;;;;;;;5050229;28;20195;-76
2021/11/01 09:27:38;;;;;;;1.90;1.02;;;;;;;;;;5042695;28;20199;-77
2021/11/01 09:30:21;;;;;;;1.38;1.10;;;;;;;;;;5052037;28;20192;-77
2021/11/01 09:35:50;;;;;;;3.30;1.33;;;;;;;;;;5047685;28;20202;-77
2021/11/01 09:38:42;;;;;;;1.58;1.08;;;;;;;;;;5048508;28;20192;-77
2021/11/01 09:41:10;;;;;;;2.60;1.20;;;;;;;;;;5046031;28;20227;-77
2021/11/01 09:43:37;;;;;;;5.05;1.27;;;;;;;;;;5047999;28;20198;-75
2021/11/01 09:46:05;;;;;;;3.17;1.33;;;;;;;;;;5048689;28;20195;-78
2021/11/01 09:48:32;;;;;;;2.40;1.23;;;;;;;;;;5065715;28;20668;-77
2021/11/01 09:50:59;;;;;;;2.45;1.10;;;;;;;;;;5050640;28;20204;-76
2021/11/01 09:53:29;;;;;;;2.10;1.42;;;;;;;;;;5046064;28;20641;-76
2021/11/01 09:56:07;;;;;;;1.98;1.20;;;;;;;;;;5047964;28;20221;-77
2021/11/01 10:01:22;;;;;;;4.55;1.40;;;;;;;;;;5045124;28;20301;-76
2021/11/01 10:03:50;;;;;;;8.25;1.63;;;;;;;;;;5045441;28;20203;-76
2021/11/01 10:06:20;;;;;;;2.72;1.40;;;;;;;;;;5043155;28;20255;-76
2021/11/01 10:08:50;;;;;;;2.28;1.60;;;;;;;;;;5031635;28;20203;-76
2021/11/01 10:11:18;;;;;;;1.33;1.20;;;;;;;;;;5031318;28;20214;-77
2021/11/01 10:13:48;;;;;;;4.30;1.20;;;;;;;;;;5046989;28;20191;-77
2021/11/01 10:19:12;;;;;;;4.70;0.95;;;;;;;;;;5070254;28;20197;-77
2021/11/01 10:21:50;;;;;;;2.45;1.42;;;;;;;;;;5053644;28;20223;-76
2021/11/01 10:24:25;;;;;;;3.15;1.30;;;;;;;;;;5045893;28;20210;-77
2021/11/01 10:26:52;;;;;;;2.45;1.33;;;;;;;;;;5045806;28;20199;-76
2021/11/01 10:29:20;;;;;;;2.60;1.25;;;;;;;;;;5042300;28;20755;-77
2021/11/01 10:31:47;;;;;;;5.97;1.30;;;;;;;;;;5046149;28;20675;-75
2021/11/01 10:34:15;;;;;;;4.63;1.30;;;;;;;;;;5048299;28;20211;-75
2021/11/01 10:36:43;;;;;;;11.10;1.42;;;;;;;;;;5045003;28;20231;-76
2021/11/01 10:39:13;;;;;;;2.45;1.73;;;;;;;;;;5047086;28;20250;-76
2021/11/01 10:41:49;;;;;;;2.50;1.67;;;;;;;;;;5046982;28;20688;-75
2021/11/01 10:44:39;;;;;;;2.83;1.15;;;;;;;;;;5050720;28;20191;-75
2021/11/01 11:12:40;;;;;;;6.55;1.95;;;;;;;;;;5050806;28;20743;-76
2021/11/01 11:15:13;;;;;;;1.65;1.10;;;;;;;;;;5042021;28;20262;-77
2021/11/01 11:17:48;;;;;;;2.00;1.25;;;;;;;;;;5045309;28;20213;-77
2021/11/01 11:20:42;;;;;;;2.83;1.73;;;;;;;;;;5045904;28;20214;-75
2021/11/01 11:23:39;;;;;;;2.40;1.25;;;;;;;;;;5041094;28;20254;-76
2021/11/01 11:26:13;;;;;;;2.20;1.38;;;;;;;;;;5042328;28;20203;-78
2021/11/01 11:29:17;;;;;;;3.53;1.23;;;;;;;;;;5042078;28;20294;-77
2021/11/01 11:48:46;;;;;;;2.55;1.40;;;;;;;;;;5074998;28;20189;-77
2021/11/01 11:51:13;;;;;;;5.13;1.55;;;;;;;;;;5073766;28;20225;-76
2021/11/01 11:53:52;;;;;;;4.10;1.70;;;;;;;;;;5074319;28;20217;-77
2021/11/01 11:56:27;;;;;;;3.25;1.20;;;;;;;;;;5074319;28;20245;-76
2021/11/01 11:58:58;;;;;;;1.70;1.15;;;;;;;;;;5068588;28;20187;-76
2021/11/01 12:01:26;;;;;;;3.15;1.95;;;;;;;;;;5057476;28;20311;-76
2021/11/01 12:03:54;;;;;;;2.80;1.40;;;;;;;;;;5052942;28;20583;-78
2021/11/01 12:06:23;;;;;;;2.55;1.35;;;;;;;;;;5053470;28;20300;-77
2021/11/01 12:08:55;;;;;;;1.92;1.00;;;;;;;;;;5055225;28;20203;-77
2021/11/01 12:11:37;;;;;;;3.22;1.30;;;;;;;;;;5052194;28;20261;-77
2021/11/01 12:17:07;;;;;;;4.63;1.30;;;;;;;;;;5056907;28;20249;-76
2021/11/01 12:19:34;;;;;;;3.75;2.25;;;;;;;;;;5051083;28;20192;-76
2021/11/01 12:22:04;;;;;;;1.75;1.05;;;;;;;;;;5053919;28;20273;-78
2021/11/01 12:24:32;;;;;;;5.75;1.10;;;;;;;;;;5054963;28;20191;-77
2021/11/01 12:27:03;;;;;;;1.55;1.33;;;;;;;;;;5051518;28;20202;-77
2021/11/01 12:29:32;;;;;;;2.20;1.20;;;;;;;;;;5053136;28;20217;-76
2021/11/01 12:32:04;;;;;;;2.58;1.00;;;;;;;;;;5053076;28;20206;-76
2021/11/01 12:34:32;;;;;;;1.85;1.10;;;;;;;;;;5054162;28;20286;-76
2021/11/01 12:37:03;;;;;;;1.42;1.10;;;;;;;;;;5052212;28;20204;-76
2021/11/01 12:39:35;;;;;;;3.35;1.20;;;;;;;;;;5051656;28;20203;-76
2021/11/01 12:58:35;;;;;;;3.78;0.90;;;;;;;;;;5042466;28;20198;-76
2021/11/01 13:01:08;;;;;;;2.65;1.02;;;;;;;;;;5039204;28;20235;-76
2021/11/01 13:03:35;;;;;;;3.08;1.00;;;;;;;;;;5037630;28;20541;-77
2021/11/01 13:06:06;;;;;;;2.17;1.00;;;;;;;;;;5035732;28;20569;-76
2021/11/01 13:08:39;;;;;;;2.00;1.10;;;;;;;;;;5036026;28;20204;-77
2021/11/01 13:11:22;;;;;;;3.33;1.00;;;;;;;;;;5037360;28;20271;-76
2021/11/01 13:19:25;;;;;;;1.65;0.90;;;;;;;;;;5045335;28;20250;-76
2021/11/01 13:21:56;;;;;;;6.72;0.95;;;;;;;;;;5043922;28;20222;-75
2021/11/01 13:24:26;;;;;;;2.25;1.20;;;;;;;;;;5046012;28;20206;-76
2021/11/01 13:27:01;;;;;;;2.05;1.10;;;;;;;;;;5040440;28;20200;-79
2021/11/01 13:35:13;;;;;;;5.05;1.00;;;;;;;;;;5038392;28;20220;-77
2021/11/01 13:37:41;;;;;;;1.67;0.90;;;;;;;;;;5038214;28;20192;-75
2021/11/01 13:40:10;;;;;;;2.28;0.93;;;;;;;;;;5043829;28;20211;-74
2021/11/01 13:42:38;;;;;;;2.17;0.90;;;;;;;;;;5035013;28;20230;-76
2021/11/01 13:45:06;;;;;;;1.98;1.50;;;;;;;;;;5040038;28;20212;-77
2021/11/01 13:47:42;;;;;;;1.85;0.93;;;;;;;;;;5039225;28;20657;-78
2021/11/01 13:50:09;;;;;;;2.20;0.95;;;;;;;;;;5038481;28;20214;-77
2021/11/01 13:52:39;;;;;;;1.20;1.08;;;;;;;;;;5038792;28;20199;-78
2021/11/01 13:55:10;;;;;;;2.10;1.00;;;;;;;;;;5040055;28;20203;-77
2021/11/01 13:57:46;;;;;;;2.65;1.00;;;;;;;;;;5039093;28;20219;-78
2021/11/01 14:03:10;;;;;;;5.15;1.08;;;;;;;;;;5042465;28;20233;-78
2021/11/01 14:11:24;;;;;;;2.08;0.90;;;;;;;;;;5036038;28;20242;-78
2021/11/01 14:13:56;;;;;;;2.80;1.67;;;;;;;;;;5040361;28;20205;-78
2021/11/01 14:16:29;;;;;;;1.40;0.80;;;;;;;;;;5038489;28;20200;-78
2021/11/01 14:35:55;;;;;;;1.50;1.17;;;;;;;;;;4998676;28;20262;-77
2021/11/01 15:17:11;;;;;;;3.75;1.45;;;;;;;;;;5045203;28;20273;-78
2021/11/01 15:28:16;;;;;;;4.50;1.23;;;;;;;;;;5039924;28;20278;-77
2021/11/01 15:33:52;;;;;;;1.60;0.90;;;;;;;;;;5003335;28;20204;-77
2021/11/01 15:39:22;;;;;;;2.35;1.25;;;;;;;;;;5043436;28;20198;-78
2021/11/01 16:15:48;;;;;;;1.75;0.77;;;;;;;;;;5015525;28;20211;-78
2021/11/01 16:18:15;;;;;;;2.53;0.98;;;;;;;;;;5035605;28;20695;-77
2021/11/01 16:20:43;;;;;;;1.23;0.73;;;;;;;;;;5032189;28;20207;-78
2021/11/01 16:23:33;;;;;;;2.25;1.00;;;;;;;;;;5035117;28;20223;-78
2021/11/01 16:26:03;;;;;;;2.17;1.25;;;;;;;;;;5036184;28;20209;-77
2021/11/01 16:28:32;;;;;;;1.60;1.00;;;;;;;;;;5037151;28;20200;-78
2021/11/01 16:34:00;;;;;;;2.00;1.10;;;;;;;;;;4998034;28;20203;-76
2021/11/01 16:39:24;;;;;;;3.30;1.17;;;;;;;;;;5007256;28;20203;-76
2021/11/01 16:41:52;;;;;;;1.45;1.10;;;;;;;;;;5050418;28;20207;-77
2021/11/01 16:44:23;;;;;;;3.17;1.20;;;;;;;;;;5041980;28;20209;-79
2021/11/01 16:46:52;;;;;;;1.27;1.00;;;;;;;;;;5039510;28;20207;-78
2021/11/01 16:49:19;;;;;;;2.25;1.00;;;;;;;;;;5039223;28;20199;-77
2021/11/01 16:51:47;;;;;;;3.28;1.35;;;;;;;;;;5039344;28;20281;-77
2021/11/01 16:54:17;;;;;;;1.75;0.90;;;;;;;;;;5040935;28;20249;-78
2021/11/01 16:56:57;;;;;;;2.75;1.30;;;;;;;;;;5039933;28;20259;-77
2021/11/01 16:59:34;;;;;;;1.83;1.02;;;;;;;;;;5050771;28;20700;-79
2021/11/01 17:02:20;;;;;;;2.80;1.75;;;;;;;;;;5037060;28;20217;-77
2021/11/01 17:04:52;;;;;;;2.97;1.20;;;;;;;;;;5039185;28;20688;-76
2021/11/01 17:07:29;;;;;;;1.90;1.20;;;;;;;;;;5044473;28;20190;-77
2021/11/01 17:21:30;;;;;;;2.65;1.17;;;;;;;;;;5038536;28;20810;-77
2021/11/01 17:24:12;;;;;;;4.32;3.05;;;;;;;;;;5043538;28;20219;-77
2021/11/01 17:26:52;;;;;;;1.13;0.93;;;;;;;;;;5038100;28;20191;-78
2021/11/01 17:29:31;;;;;;;2.55;1.17;;;;;;;;;;5039327;28;20580;-78
2021/11/01 17:35:17;;;;;;;3.40;1.20;;;;;;;;;;4994567;28;20193;-77
2021/11/01 17:37:53;;;;;;;3.25;2.10;;;;;;;;;;4991293;28;20201;-77
2021/11/01 18:41:13;;;;;;;3.47;2.00;;;;;;;;;;5017063;28;21154;-77
2021/11/01 18:44:07;;;;;;;2.40;2.00;;;;;;;;;;5040488;28;20214;-77
2021/11/01 18:52:10;;;;;;;5.50;2.78;;;;;;;;;;5031769;28;20352;-77
2021/11/01 18:54:39;;;;;;;4.32;2.15;;;;;;;;;;5041023;28;20223;-77
2021/11/01 18:57:08;;;;;;;2.40;1.80;;;;;;;;;;5036599;28;20195;-77
2021/11/01 18:59:36;;;;;;;5.65;2.50;;;;;;;;;;5043539;28;20558;-76
2021/11/01 19:02:24;;;;;;;4.95;3.25;;;;;;;;;;5052193;28;20191;-77
2021/11/01 19:04:56;;;;;;;4.72;2.55;;;;;;;;;;5039429;28;20272;-77
2021/11/01 19:07:30;;;;;;;4.13;2.25;;;;;;;;;;5039278;28;20227;-77
2021/11/01 19:10:07;;;;;;;3.20;2.75;;;;;;;;;;5042969;28;20548;-78
2021/11/01 20:05:57;;;;;;;2.80;2.58;;;;;;;;;;5041181;28;20202;-76
2021/11/01 20:08:55;;;;;;;3.38;2.33;;;;;;;;;;5039810;28;20202;-76
2021/11/01 20:11:30;;;;;;;3.17;2.30;;;;;;;;;;5038494;28;20294;-77
2021/11/01 20:14:13;;;;;;;4.95;2.60;;;;;;;;;;5043745;28;20637;-78
2021/11/01 21:26:20;;;;;;;3.40;2.10;;;;;;;;;;5053169;28;20202;-79
2021/11/01 21:28:47;;;;;;;3.50;2.40;;;;;;;;;;5038863;28;20203;-77
2021/11/01 21:31:14;;;;;;;6.20;2.50;;;;;;;;;;5039696;28;20216;-78
2021/11/01 21:33:44;;;;;;;3.17;2.17;;;;;;;;;;5040662;28;20375;-77
2021/11/01 21:36:13;;;;;;;2.85;1.80;;;;;;;;;;5040500;28;20621;-77
2021/11/01 21:38:41;;;;;;;2.67;1.95;;;;;;;;;;5042557;28;20199;-78
2021/11/01 21:41:08;;;;;;;2.65;2.40;;;;;;;;;;5047887;28;20668;-77
2021/11/01 21:43:36;;;;;;;4.10;1.98;;;;;;;;;;5040520;28;20216;-77
2021/11/01 21:46:04;;;;;;;4.28;2.90;;;;;;;;;;5035671;28;20204;-77
2021/11/01 21:48:31;;;;;;;3.05;2.00;;;;;;;;;;5039365;28;20199;-78
2021/11/01 21:50:59;;;;;;;3.03;2.15;;;;;;;;;;5038858;28;20199;-78
2021/11/01 21:53:29;;;;;;;3.30;2.40;;;;;;;;;;5040186;28;20195;-78
2021/11/01 21:55:57;;;;;;;3.03;1.80;;;;;;;;;;5049949;28;20214;-78
2021/11/01 21:58:35;;;;;;;4.38;2.20;;;;;;;;;;5036269;28;20207;-78
2021/11/01 22:18:03;;;;;;;2.72;1.65;;;;;;;;;;5040543;28;20198;-78
2021/11/01 22:20:32;;;;;;;2.00;1.30;;;;;;;;;;5036860;28;20203;-78
2021/11/01 22:23:03;;;;;;;4.30;1.40;;;;;;;;;;5034037;28;20656;-78
2021/11/01 22:25:36;;;;;;;10.07;2.00;;;;;;;;;;5033482;28;20674;-77
2021/11/01 22:33:53;;;;;;;4.63;1.70;;;;;;;;;;5036492;28;21695;-75
2021/11/01 22:39:13;;;;;;;3.08;2.00;;;;;;;;;;5045434;28;20684;-77
2021/11/01 22:42:09;;;;;;;4.15;1.55;;;;;;;;;;5035806;28;20235;-75
2021/11/01 22:44:45;;;;;;;1.83;1.45;;;;;;;;;;5037991;28;20234;-75
2021/11/01 22:55:49;;;;;;;5.75;1.90;;;;;;;;;;4980934;28;20712;-76
2021/11/01 22:58:17;;;;;;;2.05;1.40;;;;;;;;;;5015216;28;20210;-75
2021/11/01 23:00:48;;;;;;;2.35;1.58;;;;;;;;;;5033590;28;20711;-76
2021/11/01 23:03:22;;;;;;;1.60;1.30;;;;;;;;;;5049556;28;20636;-76
2021/11/01 23:33:22;;;;;;;3.03;2.10;;;;;;;;;;5039378;28;20203;-76
2021/11/01 23:35:49;;;;;;;3.08;1.77;;;;;;;;;;5046252;28;20200;-73
2021/11/01 23:38:18;;;;;;;8.07;1.55;;;;;;;;;;5041083;28;20195;-75
2021/11/01 23:40:46;;;;;;;3.72;2.20;;;;;;;;;;5041611;28;20207;-78
2021/11/01 23:43:13;;;;;;;3.13;1.80;;;;;;;;;;5038902;28;20227;-75
2021/11/01 23:45:41;;;;;;;3.67;2.15;;;;;;;;;;5048184;28;20195;-76
2021/11/01 23:48:08;;;;;;;3.55;1.70;;;;;;;;;;5048374;28;20209;-76
2021/11/01 23:50:36;;;;;;;9.98;1.98;;;;;;;;;;5043516;28;20656;-74
2021/11/01 23:53:09;;;;;;;3.45;1.95;;;;;;;;;;5048604;28;20210;-75
2021/11/01 23:55:38;;;;;;;4.10;2.25;;;;;;;;;;5055399;28;20199;-74
2021/11/01 23:58:05;;;;;;;1.98;1.50;;;;;;;;;;5043726;28;20584;-75
